This is the latest recevied weather packets stored in our database for station/object K1ABC. If no packets are shown the sender has not sent any weather packets the latest 10 day(s).
| Time | Temp. | Humidity | Pressure | Rain* | Wind** | Luminosity | Snow |
|---|---|---|---|---|---|---|---|
| 1777746707 | 13.33° C | 63% | 1010.7 hPa | 0 mm | - | - | - |
| 1777746504 | 13.89° C | 65% | 1010.8 hPa | 0 mm | - | - | - |
| 1777744827 | 15° C | 68% | 1010.5 hPa | 0 mm | - | - | - |
| 1777742886 | 12.78° C | 74% | 1010.9 hPa | 0 mm | - | - | - |
| 1777742441 | 13.33° C | 72% | 1011 hPa | 0 mm | - | - | - |
| 1777741497 | 13.89° C | 73% | 1011.1 hPa | 0 mm | - | - | - |
| 1777741167 | 12.78° C | 76% | 1011.1 hPa | 0 mm | - | - | - |
| 1777740344 | 12.78° C | 76% | 1011.5 hPa | 0 mm | - | - | - |
| 1777739901 | 12.22° C | 76% | 1011.5 hPa | 0 mm | - | - | - |
| 1777738328 | 12.22° C | 78% | 1011.5 hPa | 0 mm | - | - | - |
| 1777737753 | 11.67° C | 79% | 1011.5 hPa | 0 mm | - | - | - |
| 1777734808 | 10.56° C | 84% | 1011.6 hPa | 0 mm | - | - | - |
| 1777733847 | 9.44° C | 91% | 1011.9 hPa | 0 mm | - | - | - |
| 1777733527 | 8.89° C | 92% | 1011.9 hPa | 0 mm | - | - | - |
| 1777731723 | 7.78° C | 90% | 1012.2 hPa | 0 mm | - | - | - |
| 1777731155 | 7.78° C | 90% | 1012.2 hPa | 0 mm | - | - | - |
| 1777730211 | 7.78° C | 91% | 1012.1 hPa | 0 mm | - | - | - |
| 1777729127 | 7.22° C | 91% | 1012 hPa | 0 mm | - | - | - |
| 1777728417 | 7.22° C | 90% | 1012.1 hPa | 1.52 mm | - | - | - |
| 1777728090 | 6.67° C | 90% | 1012.2 hPa | 4.06 mm | - | - | - |
| 1777727390 | 7.22° C | 89% | 1012.4 hPa | 3.05 mm | - | - | - |
| 1777727195 | 7.22° C | 89% | 1012.3 hPa | 2.54 mm | - | - | - |
| 1777726500 | 7.22° C | 88% | 1012.2 hPa | 0 mm | - | - | - |
| 1777724328 | 6.67° C | 87% | 1012.6 hPa | 3.81 mm | - | - | - |
| 1777723009 | 7.78° C | 82% | 1011.9 hPa | 0 mm | - | - | - |
* Rain latest hour (hover to see other rain measurements)
** Current wind speed in m/s (hover to see current wind gust speed)